Time,TemperatureF,DewpointF,PressureIn,WindDirection,WindDirectionDegrees,WindSpeedMPH,WindSpeedGustMPH,Humidity,HourlyPrecipIn,Conditions,Clouds,dailyrainin,SolarRadiationWatts/m^2,SoftwareType,DateUTC
2013-10-15 00:42:00,53.0,24.0,-100.00,North,359,5.0,11.0,32,0.00,,,0.00,1.000000,,2013-10-15 07:42:00,
2013-10-15 00:52:00,53.0,24.0,-100.00,North,359,5.0,11.0,32,0.00,,,0.00,1.000000,,2013-10-15 07:52:00,
2013-10-15 01:42:00,52.0,22.0,-100.00,North,357,8.0,12.0,31,0.00,,,0.00,1.000000,,2013-10-15 08:42:00,
2013-10-15 01:52:00,52.0,22.0,-100.00,North,357,8.0,12.0,31,0.00,,,0.00,1.000000,,2013-10-15 08:52:00,
2013-10-15 02:42:00,51.0,21.0,-100.00,North,355,8.0,13.0,31,0.00,,,0.00,1.000000,,2013-10-15 09:42:00,
2013-10-15 02:53:00,51.0,21.0,-100.00,North,355,8.0,13.0,31,0.00,,,0.00,1.000000,,2013-10-15 09:53:00,
2013-10-15 03:42:00,50.0,23.0,-100.00,North,351,9.0,13.0,34,0.00,,,0.00,1.000000,,2013-10-15 10:42:00,
2013-10-15 03:53:00,50.0,23.0,-100.00,North,351,9.0,13.0,34,0.00,,,0.00,1.000000,,2013-10-15 10:53:00,
2013-10-15 04:42:00,51.0,23.0,-100.00,North,350,9.0,14.0,33,0.00,,,0.00,1.000000,,2013-10-15 11:42:00,
2013-10-15 04:52:00,51.0,23.0,-100.00,North,350,9.0,14.0,33,0.00,,,0.00,1.000000,,2013-10-15 11:52:00,
2013-10-15 05:42:00,50.0,23.0,-100.00,NNW,346,9.0,14.0,34,0.00,,,0.00,1.000000,,2013-10-15 12:42:00,
2013-10-15 05:52:00,50.0,23.0,-100.00,NNW,346,9.0,14.0,34,0.00,,,0.00,1.000000,,2013-10-15 12:52:00,
2013-10-15 06:42:00,50.0,23.0,-100.00,North,350,10.0,14.0,34,0.00,,,0.00,1.000000,,2013-10-15 13:42:00,
2013-10-15 06:52:00,50.0,23.0,-100.00,North,350,10.0,14.0,34,0.00,,,0.00,1.000000,,2013-10-15 13:52:00,
2013-10-15 07:42:00,50.0,23.0,-100.00,North,351,11.0,18.0,34,0.00,,,0.00,1.000000,,2013-10-15 14:42:00,
2013-10-15 07:52:00,50.0,23.0,-100.00,North,351,11.0,18.0,34,0.00,,,0.00,1.000000,,2013-10-15 14:52:00,
2013-10-15 08:43:00,50.0,23.0,-100.00,North,350,9.0,19.0,34,0.00,,,-99.99,62.000000,,2013-10-15 15:43:00,
2013-10-15 08:53:00,50.0,23.0,-100.00,North,350,9.0,19.0,34,0.00,,,-99.99,62.000000,,2013-10-15 15:53:00,
2013-10-15 09:42:00,51.0,24.0,-100.00,North,353,10.0,19.0,34,0.00,,,0.00,296.000000,,2013-10-15 16:42:00,
2013-10-15 09:53:00,51.0,24.0,-100.00,North,353,10.0,19.0,34,0.00,,,0.00,296.000000,,2013-10-15 16:53:00,
2013-10-15 10:22:00,53.0,24.0,-100.00,North,350,7.0,15.0,32,0.00,,,0.00,224.000000,,2013-10-15 17:22:00,
2013-10-15 10:32:00,53.0,24.0,-100.00,North,350,7.0,15.0,32,0.00,,,0.00,224.000000,,2013-10-15 17:32:00,
2013-10-15 10:42:00,53.0,24.0,-100.00,North,350,7.0,15.0,32,0.00,,,0.00,224.000000,,2013-10-15 17:42:00,
2013-10-15 10:53:00,53.0,24.0,-100.00,North,350,7.0,15.0,32,0.00,,,0.00,224.000000,,2013-10-15 17:53:00,
2013-10-15 11:42:00,56.0,25.0,-100.00,North,352,8.0,15.0,30,0.00,,,0.00,770.000000,,2013-10-15 18:42:00,
2013-10-15 11:52:00,56.0,25.0,-100.00,North,352,8.0,15.0,30,0.00,,,0.00,770.000000,,2013-10-15 18:52:00,
2013-10-15 12:21:00,61.0,26.0,-100.00,North,5,5.0,15.0,26,0.00,,,0.00,896.000000,,2013-10-15 19:21:00,
2013-10-15 12:32:00,61.0,26.0,-100.00,North,5,5.0,15.0,26,0.00,,,0.00,896.000000,,2013-10-15 19:32:00,
2013-10-15 12:42:00,61.0,26.0,-100.00,North,5,5.0,15.0,26,0.00,,,0.00,896.000000,,2013-10-15 19:42:00,
2013-10-15 12:52:00,61.0,26.0,-100.00,North,5,5.0,15.0,26,0.00,,,0.00,896.000000,,2013-10-15 19:52:00,
2013-10-15 13:21:00,66.0,26.0,-100.00,NE,35,5.0,15.0,22,0.00,,,0.00,948.000000,,2013-10-15 20:21:00,
2013-10-15 13:32:00,66.0,26.0,-100.00,NE,35,5.0,15.0,22,0.00,,,0.00,948.000000,,2013-10-15 20:32:00,
2013-10-15 13:42:00,66.0,26.0,-100.00,NE,35,5.0,15.0,22,0.00,,,0.00,948.000000,,2013-10-15 20:42:00,
2013-10-15 13:52:00,66.0,26.0,-100.00,NE,35,5.0,15.0,22,0.00,,,0.00,948.000000,,2013-10-15 20:52:00,
2013-10-15 14:22:00,66.0,25.0,-100.00,North,355,4.0,16.0,21,0.00,,,0.00,918.000000,,2013-10-15 21:22:00,
2013-10-15 14:34:00,66.0,25.0,-100.00,North,355,4.0,16.0,21,0.00,,,0.00,918.000000,,2013-10-15 21:34:00,
2013-10-15 14:44:00,66.0,25.0,-100.00,North,355,4.0,16.0,21,0.00,,,0.00,918.000000,,2013-10-15 21:44:00,
2013-10-15 14:54:00,66.0,25.0,-100.00,North,355,4.0,16.0,21,0.00,,,0.00,918.000000,,2013-10-15 21:54:00,
2013-10-15 15:23:00,67.0,25.0,-100.00,NNE,15,4.0,11.0,20,0.00,,,0.00,817.000000,,2013-10-15 22:23:00,
2013-10-15 15:33:00,67.0,25.0,-100.00,NNE,15,4.0,11.0,20,0.00,,,0.00,817.000000,,2013-10-15 22:33:00,
2013-10-15 15:43:00,67.0,25.0,-100.00,NNE,15,4.0,11.0,20,0.00,,,0.00,817.000000,,2013-10-15 22:43:00,
2013-10-15 15:53:00,67.0,25.0,-100.00,NNE,15,4.0,11.0,20,0.00,,,0.00,817.000000,,2013-10-15 22:53:00,
2013-10-15 16:43:00,66.0,24.0,-100.00,North,357,4.0,13.0,20,0.00,,,0.00,650.000000,,2013-10-15 23:43:00,
2013-10-15 16:52:00,66.0,24.0,-100.00,North,357,4.0,13.0,20,0.00,,,0.00,650.000000,,2013-10-15 23:52:00,
2013-10-15 17:42:00,64.0,22.0,-100.00,North,359,4.0,11.0,20,0.00,,,0.00,430.000000,,2013-10-16 00:42:00,
2013-10-15 17:52:00,64.0,22.0,-100.00,North,359,4.0,11.0,20,0.00,,,0.00,430.000000,,2013-10-16 00:52:00,
2013-10-15 18:42:00,60.0,21.0,-100.00,North,354,5.0,13.0,22,0.00,,,0.00,165.000000,,2013-10-16 01:42:00,
2013-10-15 18:52:00,60.0,21.0,-100.00,North,354,5.0,13.0,22,0.00,,,0.00,165.000000,,2013-10-16 01:52:00,
2013-10-15 19:22:00,58.0,20.0,-100.00,North,351,6.0,13.0,23,0.00,,,0.00,6.000000,,2013-10-16 02:22:00,
2013-10-15 19:31:00,58.0,20.0,-100.00,North,351,6.0,13.0,23,0.00,,,0.00,6.000000,,2013-10-16 02:31:00,
2013-10-15 19:42:00,58.0,20.0,-100.00,North,351,6.0,13.0,23,0.00,,,0.00,6.000000,,2013-10-16 02:42:00,
2013-10-15 19:52:00,58.0,20.0,-100.00,North,351,6.0,13.0,23,0.00,,,0.00,6.000000,,2013-10-16 02:52:00,
2013-10-15 20:44:00,57.0,20.0,-100.00,North,359,5.0,12.0,23,0.00,,,0.00,1.000000,,2013-10-16 03:44:00,
2013-10-15 20:54:00,57.0,20.0,-100.00,North,359,5.0,12.0,23,0.00,,,0.00,1.000000,,2013-10-16 03:54:00,
2013-10-15 21:24:00,55.0,19.0,-100.00,North,6,4.0,11.0,24,0.00,,,0.00,1.000000,,2013-10-16 04:24:00,
2013-10-15 21:34:00,55.0,19.0,-100.00,North,6,4.0,11.0,24,0.00,,,0.00,1.000000,,2013-10-16 04:34:00,
2013-10-15 21:43:00,55.0,19.0,-100.00,North,6,4.0,11.0,24,0.00,,,0.00,1.000000,,2013-10-16 04:43:00,
2013-10-15 21:53:00,55.0,19.0,-100.00,North,6,4.0,11.0,24,0.00,,,0.00,1.000000,,2013-10-16 04:53:00,
2013-10-15 22:43:00,54.0,19.0,-100.00,ENE,70,9.0,17.0,25,0.00,,,0.00,1.000000,,2013-10-16 05:43:00,
2013-10-15 22:52:00,54.0,19.0,-100.00,ENE,70,9.0,17.0,25,0.00,,,0.00,1.000000,,2013-10-16 05:52:00,
2013-10-15 23:43:00,55.0,18.0,-100.00,East,79,14.0,22.0,23,0.00,,,0.00,1.000000,,2013-10-16 06:43:00,
2013-10-15 23:52:00,55.0,18.0,-100.00,East,79,14.0,22.0,23,0.00,,,0.00,1.000000,,2013-10-16 06:52:00,